createdAt,value
2019-01-24T00:01:13.682Z,64.50
2019-01-24T00:02:13.901Z,66.30
2019-01-24T00:04:19.085Z,66.60
2019-01-24T00:05:19.317Z,65.20
2019-01-24T00:07:23.465Z,68.50
2019-01-24T00:08:23.702Z,69.40
2019-01-24T00:10:27.854Z,59.90
2019-01-24T00:11:28.086Z,60.20
2019-01-24T00:13:32.250Z,60.40
2019-01-24T00:14:32.484Z,59.80
2019-01-24T00:16:25.574Z,59.00
2019-01-24T00:17:25.793Z,61.90
2019-01-24T00:19:29.955Z,63.30
2019-01-24T00:20:30.182Z,63.70
2019-01-24T00:22:35.344Z,60.70
2019-01-24T00:23:35.576Z,58.70
2019-01-24T00:25:39.747Z,56.70
2019-01-24T00:26:39.967Z,59.30
2019-01-24T00:28:44.132Z,57.00
2019-01-24T00:29:44.365Z,57.30
2019-01-24T00:31:49.517Z,57.30
2019-01-24T00:32:49.750Z,55.60
2019-01-24T00:34:53.919Z,60.70
2019-01-24T00:35:54.138Z,61.00
2019-01-24T00:37:58.303Z,63.00
2019-01-24T00:38:58.498Z,62.20
2019-01-24T00:41:02.664Z,52.70
2019-01-24T00:42:02.898Z,52.80
2019-01-24T00:44:07.057Z,54.50
2019-01-24T00:45:07.289Z,52.20
2019-01-24T00:47:11.450Z,53.30
2019-01-24T00:48:11.662Z,53.30
2019-01-24T00:50:15.842Z,56.80
2019-01-24T00:51:16.050Z,58.70
2019-01-24T00:53:20.199Z,59.60
2019-01-24T00:54:20.440Z,59.20
2019-01-24T00:56:13.499Z,52.70
2019-01-24T00:57:13.734Z,51.80
2019-01-24T00:59:17.910Z,52.00
2019-01-24T01:00:18.161Z,50.90
2019-01-24T01:02:22.320Z,52.90
2019-01-24T01:03:22.527Z,51.20
2019-01-24T01:05:26.690Z,49.90
2019-01-24T01:06:26.925Z,51.80
2019-01-24T01:08:31.074Z,53.10
2019-01-24T01:09:31.302Z,56.60
2019-01-24T01:11:35.464Z,55.10
2019-01-24T01:12:35.693Z,58.00
2019-01-24T01:14:40.873Z,55.80
2019-01-24T01:15:41.104Z,54.60
2019-01-24T01:17:45.250Z,49.20
2019-01-24T01:18:45.476Z,51.70
2019-01-24T01:20:50.648Z,49.60
2019-01-24T01:21:50.884Z,50.10
2019-01-24T01:23:55.018Z,55.50
2019-01-24T01:24:55.246Z,54.30
2019-01-24T01:26:59.409Z,57.10
2019-01-24T01:27:59.641Z,56.30
2019-01-24T01:30:03.816Z,48.40
2019-01-24T01:31:04.036Z,50.00
2019-01-24T01:33:08.177Z,46.60
2019-01-24T01:34:08.406Z,50.00
2019-01-24T01:36:01.518Z,48.00
2019-01-24T01:37:09.918Z,48.50
2019-01-24T01:39:06.025Z,49.20
2019-01-24T01:40:06.257Z,51.30
2019-01-24T01:42:10.437Z,51.80
2019-01-24T01:43:10.670Z,50.70
2019-01-24T01:45:15.834Z,50.30
2019-01-24T01:46:16.066Z,50.70
2019-01-24T01:48:20.241Z,51.30
2019-01-24T01:49:20.463Z,51.90
2019-01-24T01:51:24.595Z,52.60
2019-01-24T01:52:24.826Z,51.10
2019-01-24T01:54:28.981Z,49.90
2019-01-24T01:55:29.198Z,50.80
2019-01-24T01:57:33.350Z,53.90
2019-01-24T01:58:33.569Z,55.30
2019-01-24T02:00:37.723Z,48.30
2019-01-24T02:01:37.954Z,47.00
2019-01-24T02:03:42.095Z,45.50
2019-01-24T02:04:43.051Z,45.30
2019-01-24T02:06:36.436Z,46.60
2019-01-24T02:07:36.673Z,45.80
2019-01-24T02:09:40.816Z,51.40
2019-01-24T02:10:41.026Z,48.70
2019-01-24T02:12:45.181Z,48.90
2019-01-24T02:13:45.414Z,44.50
2019-01-24T02:15:49.576Z,45.40
2019-01-24T02:16:49.820Z,45.90
2019-01-24T02:18:53.948Z,47.10
2019-01-24T02:19:54.198Z,47.40
2019-01-24T02:21:58.335Z,47.10
2019-01-24T02:22:58.567Z,46.80
2019-01-24T02:25:03.726Z,48.00
2019-01-24T02:26:03.954Z,47.10
2019-01-24T02:28:08.128Z,49.10
2019-01-24T02:29:08.353Z,47.50
2019-01-24T02:31:12.527Z,46.10
2019-01-24T02:32:12.749Z,44.10
2019-01-24T02:34:16.883Z,47.90
2019-01-24T02:35:17.119Z,47.10
2019-01-24T02:37:21.271Z,49.00
2019-01-24T02:38:21.509Z,43.70
2019-01-24T02:40:25.650Z,46.50
2019-01-24T02:41:25.888Z,46.80
2019-01-24T02:43:31.065Z,46.30
2019-01-24T02:44:31.306Z,46.70
2019-01-24T02:46:24.388Z,46.00
2019-01-24T02:47:24.622Z,45.80
2019-01-24T02:49:28.769Z,45.50
2019-01-24T02:50:28.997Z,45.90
2019-01-24T02:52:33.162Z,47.10
2019-01-24T02:53:33.392Z,45.70
2019-01-24T02:55:38.546Z,45.00
2019-01-24T02:56:38.778Z,47.30
2019-01-24T02:58:31.880Z,46.30
2019-01-24T02:59:32.113Z,45.90
2019-01-24T03:01:36.279Z,46.00
2019-01-24T03:02:36.528Z,46.10
2019-01-24T03:04:40.649Z,45.90
2019-01-24T03:05:40.883Z,45.00
2019-01-24T03:07:45.046Z,47.40
2019-01-24T03:08:45.317Z,47.60
2019-01-24T03:10:49.414Z,45.20
2019-01-24T03:11:49.650Z,45.40
2019-01-24T03:14:05.136Z,46.20
2019-01-24T03:15:05.318Z,45.20
2019-01-24T03:17:09.462Z,45.00
2019-01-24T03:18:09.688Z,42.00
2019-01-24T03:20:13.850Z,43.20
2019-01-24T03:21:14.084Z,42.90
2019-01-24T03:23:18.265Z,44.40
2019-01-24T03:24:18.472Z,43.80
2019-01-24T03:26:11.544Z,45.70
2019-01-24T03:27:11.776Z,44.60
2019-01-24T03:29:15.942Z,46.10
2019-01-24T03:30:16.168Z,46.50
2019-01-24T03:32:20.301Z,49.00
2019-01-24T03:33:20.525Z,50.80
2019-01-24T03:35:24.684Z,46.10
2019-01-24T03:36:24.917Z,45.30
2019-01-24T03:38:29.082Z,44.10
2019-01-24T03:39:29.316Z,44.10
2019-01-24T03:41:41.409Z,44.70
2019-01-24T03:42:33.842Z,44.70
2019-01-24T03:44:38.020Z,43.70
2019-01-24T03:45:38.230Z,44.50
2019-01-24T03:47:43.388Z,44.30
2019-01-24T03:48:43.625Z,44.90
2019-01-24T03:50:47.785Z,44.10
2019-01-24T03:51:48.020Z,43.10
2019-01-24T03:53:52.204Z,42.80
2019-01-24T03:54:52.426Z,43.60
2019-01-24T03:56:56.557Z,43.90
2019-01-24T03:57:56.790Z,44.60
2019-01-24T04:00:00.953Z,47.30
2019-01-24T04:01:01.177Z,48.70
2019-01-24T04:03:05.317Z,49.70
2019-01-24T04:04:05.540Z,46.00
2019-01-24T04:05:58.654Z,43.40
2019-01-24T04:06:58.869Z,43.30
2019-01-24T04:09:03.004Z,43.80
2019-01-24T04:10:03.238Z,45.10
2019-01-24T04:12:08.534Z,42.20
2019-01-24T04:13:07.628Z,44.20
2019-01-24T04:15:11.883Z,42.50
2019-01-24T04:16:12.035Z,43.50
2019-01-24T04:18:16.180Z,42.40
2019-01-24T04:19:16.401Z,45.20
2019-01-24T04:21:32.235Z,48.80
2019-01-24T04:22:32.458Z,50.10
2019-01-24T04:24:36.593Z,45.60
2019-01-24T04:25:36.847Z,43.40
2019-01-24T04:27:40.986Z,44.10
2019-01-24T04:28:41.228Z,44.70
2019-01-24T04:30:45.374Z,44.50
2019-01-24T04:31:45.612Z,44.90
2019-01-24T04:33:49.796Z,44.20
2019-01-24T04:34:50.007Z,45.20
2019-01-24T04:36:54.141Z,44.30
2019-01-24T04:37:54.386Z,44.80
2019-01-24T04:39:58.549Z,44.00
2019-01-24T04:40:58.770Z,43.40
2019-01-24T04:43:03.412Z,44.20
2019-01-24T04:44:03.641Z,45.60
2019-01-24T04:45:58.222Z,49.90
2019-01-24T04:46:58.435Z,50.30
2019-01-24T04:49:02.623Z,52.20
2019-01-24T04:50:02.868Z,49.20
2019-01-24T04:52:07.008Z,45.30
2019-01-24T04:53:07.239Z,44.70
2019-01-24T04:55:00.525Z,44.70
2019-01-24T04:56:00.750Z,45.80
2019-01-24T04:58:04.897Z,45.90
2019-01-24T04:59:05.154Z,44.70
2019-01-24T05:01:09.293Z,49.60
2019-01-24T05:02:09.512Z,49.10
2019-01-24T05:04:25.249Z,51.70
2019-01-24T05:05:27.844Z,51.40
2019-01-24T05:07:29.572Z,45.00
2019-01-24T05:08:29.801Z,44.50
2019-01-24T05:10:22.897Z,45.30
2019-01-24T05:11:23.135Z,46.00
2019-01-24T05:13:27.300Z,45.10
2019-01-24T05:14:27.514Z,46.70
2019-01-24T05:16:20.594Z,44.80
2019-01-24T05:17:20.849Z,44.70
2019-01-24T05:19:13.956Z,44.00
2019-01-24T05:20:14.159Z,44.40
2019-01-24T05:23:49.553Z,48.40
2019-01-24T05:24:59.575Z,48.70
2019-01-24T05:26:46.128Z,51.80
2019-01-24T05:27:46.362Z,49.50
2019-01-24T05:29:50.541Z,43.60
2019-01-24T05:30:50.767Z,45.10
2019-01-24T05:32:55.431Z,45.20
2019-01-24T05:33:55.134Z,45.60
2019-01-24T05:35:48.634Z,44.70
2019-01-24T05:36:48.852Z,45.50
2019-01-24T05:38:43.047Z,49.00
2019-01-24T05:39:43.277Z,49.50
2019-01-24T05:41:48.506Z,51.00
2019-01-24T05:42:48.734Z,48.70
2019-01-24T05:44:54.419Z,43.60
2019-01-24T05:45:54.633Z,43.90
2019-01-24T05:47:47.923Z,43.20
2019-01-24T05:48:48.162Z,43.50
2019-01-24T05:50:52.321Z,41.90
2019-01-24T05:51:52.555Z,43.20
2019-01-24T05:53:56.702Z,43.00
2019-01-24T05:54:56.937Z,42.50
2019-01-24T05:57:01.949Z,42.10
2019-01-24T05:58:02.182Z,43.10
2019-01-24T06:00:17.589Z,42.30
2019-01-24T06:01:17.824Z,41.30
2019-01-24T06:03:21.980Z,41.50
2019-01-24T06:04:22.220Z,43.60
2019-01-24T06:06:15.297Z,43.60
2019-01-24T06:07:15.522Z,43.50
2019-01-24T06:09:20.721Z,47.30
2019-01-24T06:10:20.977Z,46.30
2019-01-24T06:12:21.379Z,48.00
2019-01-24T06:13:14.511Z,48.70
2019-01-24T06:15:18.883Z,55.00
2019-01-24T06:16:19.113Z,44.50
2019-01-24T06:18:23.283Z,43.60
2019-01-24T06:19:23.509Z,42.50
2019-01-24T06:21:27.673Z,45.00
2019-01-24T06:22:27.909Z,43.80
2019-01-24T06:24:32.048Z,42.00
2019-01-24T06:25:32.282Z,44.00
2019-01-24T06:27:36.452Z,45.30
2019-01-24T06:28:36.684Z,45.80
2019-01-24T06:30:40.823Z,43.60
2019-01-24T06:31:41.056Z,43.10
2019-01-24T06:33:45.222Z,44.00
2019-01-24T06:34:45.454Z,44.40
2019-01-24T06:36:39.550Z,43.70
2019-01-24T06:37:39.782Z,43.60
2019-01-24T06:39:43.926Z,43.90
2019-01-24T06:40:44.153Z,42.50
2019-01-24T06:42:48.311Z,43.70
2019-01-24T06:43:48.541Z,45.30
2019-01-24T06:45:52.682Z,46.80
2019-01-24T06:46:52.907Z,48.10
2019-01-24T06:48:57.062Z,48.20
2019-01-24T06:49:57.293Z,48.30
2019-01-24T06:52:01.448Z,50.20
2019-01-24T06:53:01.680Z,49.80
2019-01-24T06:55:05.821Z,42.40
2019-01-24T06:56:06.053Z,43.00
2019-01-24T06:58:10.221Z,44.80
2019-01-24T06:59:10.454Z,45.50
2019-01-24T07:01:14.604Z,45.20
2019-01-24T07:02:14.837Z,45.90
2019-01-24T07:04:18.994Z,48.00
2019-01-24T07:05:19.223Z,48.30
2019-01-24T07:07:23.377Z,48.80
2019-01-24T07:08:23.606Z,48.80
2019-01-24T07:10:27.764Z,47.40
2019-01-24T07:11:27.997Z,43.90
2019-01-24T07:13:32.162Z,42.60
2019-01-24T07:14:32.392Z,43.20
2019-01-24T07:16:25.460Z,44.10
2019-01-24T07:17:25.689Z,41.50
2019-01-24T07:19:29.849Z,43.50
2019-01-24T07:20:30.082Z,44.60
2019-01-24T07:22:34.240Z,46.60
2019-01-24T07:23:34.470Z,46.70
2019-01-24T07:25:38.610Z,46.90
2019-01-24T07:26:38.835Z,46.40
2019-01-24T07:28:43.024Z,45.60
2019-01-24T07:29:43.252Z,47.60
2019-01-24T07:31:48.399Z,50.70
2019-01-24T07:32:48.628Z,49.10
2019-01-24T07:34:52.802Z,47.60
2019-01-24T07:35:53.030Z,49.50
2019-01-24T07:37:57.192Z,42.10
2019-01-24T07:38:57.428Z,42.20
2019-01-24T07:41:01.567Z,43.00
2019-01-24T07:42:01.800Z,42.90
2019-01-24T07:44:05.958Z,44.30
2019-01-24T07:45:06.193Z,43.60
2019-01-24T07:47:10.333Z,45.20
2019-01-24T07:48:10.562Z,46.30
2019-01-24T07:50:14.714Z,48.80
2019-01-24T07:51:14.942Z,47.60
2019-01-24T07:53:19.111Z,46.80
2019-01-24T07:54:19.338Z,48.40
2019-01-24T07:56:12.407Z,43.20
2019-01-24T07:57:12.640Z,42.30
2019-01-24T07:59:16.804Z,43.10
2019-01-24T08:00:17.038Z,42.80
2019-01-24T08:02:21.173Z,44.80
2019-01-24T08:03:21.404Z,45.50
2019-01-24T08:05:25.557Z,44.70
2019-01-24T08:06:25.788Z,46.50
2019-01-24T08:08:29.969Z,47.10
2019-01-24T08:09:30.199Z,47.40
2019-01-24T08:11:34.334Z,47.00
2019-01-24T08:12:34.564Z,47.40
2019-01-24T08:14:38.728Z,47.80
2019-01-24T08:15:38.976Z,47.90
2019-01-24T08:17:43.089Z,45.20
2019-01-24T08:18:43.321Z,47.70
2019-01-24T08:20:47.475Z,46.60
2019-01-24T08:21:47.705Z,47.10
2019-01-24T08:23:51.859Z,45.90
2019-01-24T08:24:52.091Z,47.30
2019-01-24T08:26:56.227Z,49.30
2019-01-24T08:27:56.458Z,47.60
2019-01-24T08:30:00.623Z,45.80
2019-01-24T08:31:00.853Z,46.70
2019-01-24T08:33:04.991Z,45.80
2019-01-24T08:34:05.216Z,45.90
2019-01-24T08:35:58.298Z,46.80
2019-01-24T08:36:58.529Z,47.10
2019-01-24T08:39:02.688Z,46.40
2019-01-24T08:40:02.914Z,46.10
2019-01-24T08:42:07.051Z,45.90
2019-01-24T08:43:07.280Z,44.40
2019-01-24T08:45:11.438Z,44.60
2019-01-24T08:46:11.668Z,45.90
2019-01-24T08:48:15.804Z,45.90
2019-01-24T08:49:16.033Z,44.80
2019-01-24T08:51:20.191Z,46.00
2019-01-24T08:52:20.438Z,43.70
2019-01-24T08:54:24.577Z,45.30
2019-01-24T08:55:24.804Z,45.10
2019-01-24T08:57:28.935Z,44.20
2019-01-24T08:58:29.164Z,43.80
2019-01-24T09:00:33.320Z,44.60
2019-01-24T09:01:33.551Z,43.50
2019-01-24T09:03:37.687Z,44.80
2019-01-24T09:04:37.916Z,43.80
2019-01-24T09:06:30.998Z,45.30
2019-01-24T09:07:31.230Z,45.80
2019-01-24T09:09:35.386Z,43.70
2019-01-24T09:10:35.613Z,44.80
2019-01-24T09:12:39.748Z,44.10
2019-01-24T09:13:39.982Z,44.90
2019-01-24T09:15:44.133Z,45.80
2019-01-24T09:16:44.362Z,44.10
2019-01-24T09:18:48.503Z,45.80
2019-01-24T09:19:48.733Z,43.70
2019-01-24T09:21:52.883Z,45.00
2019-01-24T09:22:55.379Z,45.70
2019-01-24T09:24:57.266Z,44.80
2019-01-24T09:25:57.496Z,44.10
2019-01-24T09:28:01.631Z,45.90
2019-01-24T09:29:01.925Z,43.40
2019-01-24T09:31:06.068Z,46.20
2019-01-24T09:32:06.297Z,43.30
2019-01-24T09:34:10.429Z,44.50
2019-01-24T09:35:10.660Z,43.60
2019-01-24T09:37:14.829Z,43.70
2019-01-24T09:38:15.061Z,41.70
2019-01-24T09:40:19.219Z,43.70
2019-01-24T09:41:19.448Z,43.90
2019-01-24T09:43:23.588Z,42.40
2019-01-24T09:44:23.816Z,42.70
2019-01-24T09:46:16.899Z,42.00
2019-01-24T09:47:17.129Z,43.10
2019-01-24T09:49:21.295Z,42.90
2019-01-24T09:50:21.494Z,43.60
2019-01-24T09:52:25.653Z,43.90
2019-01-24T09:53:25.884Z,42.30
2019-01-24T09:55:30.039Z,42.40
2019-01-24T09:56:30.269Z,41.90
2019-01-24T09:58:34.406Z,41.50
2019-01-24T09:59:34.638Z,42.80
2019-01-24T10:01:38.804Z,42.10
2019-01-24T10:02:39.032Z,41.00
2019-01-24T10:04:43.170Z,42.10
2019-01-24T10:05:43.401Z,41.30
2019-01-24T10:07:47.560Z,42.30
2019-01-24T10:08:47.794Z,41.10
2019-01-24T10:10:51.962Z,42.10
2019-01-24T10:11:52.193Z,42.30
2019-01-24T10:13:56.328Z,41.80
2019-01-24T10:14:56.560Z,42.10
2019-01-24T10:17:00.723Z,41.00
2019-01-24T10:18:00.954Z,42.20
2019-01-24T10:20:05.091Z,42.60
2019-01-24T10:21:05.323Z,42.10
2019-01-24T10:23:09.479Z,42.50
2019-01-24T10:24:09.711Z,41.60
2019-01-24T10:26:02.797Z,42.10
2019-01-24T10:27:03.046Z,41.00
2019-01-24T10:29:07.322Z,40.00
2019-01-24T10:30:07.601Z,40.90
2019-01-24T10:32:11.943Z,40.40
2019-01-24T10:33:12.144Z,41.70
2019-01-24T10:35:16.486Z,41.20
2019-01-24T10:36:16.733Z,41.90
2019-01-24T10:38:21.871Z,40.50
2019-01-24T10:39:22.125Z,41.30
2019-01-24T10:41:26.283Z,41.90
2019-01-24T10:42:26.555Z,42.00
2019-01-24T10:44:30.803Z,41.10
2019-01-24T10:45:31.122Z,40.40
2019-01-24T10:47:35.395Z,41.70
2019-01-24T10:48:35.661Z,41.10
2019-01-24T10:50:39.937Z,41.60
2019-01-24T10:51:40.137Z,41.20
2019-01-24T10:53:44.358Z,40.10
2019-01-24T10:54:44.592Z,40.90
2019-01-24T10:56:37.782Z,41.30
2019-01-24T10:57:37.989Z,40.70
2019-01-24T10:59:43.059Z,40.60
2019-01-24T11:00:43.294Z,41.50
2019-01-24T11:02:47.521Z,42.00
2019-01-24T11:03:47.783Z,42.60
2019-01-24T11:05:52.002Z,41.30
2019-01-24T11:06:52.171Z,41.30
2019-01-24T11:08:56.387Z,42.70
2019-01-24T11:09:56.864Z,43.70
2019-01-24T11:12:00.788Z,43.60
2019-01-24T11:13:01.023Z,43.50
2019-01-24T11:15:05.170Z,41.40
2019-01-24T11:16:05.404Z,42.50
2019-01-24T11:18:09.576Z,41.20
2019-01-24T11:19:09.813Z,40.50
2019-01-24T11:21:13.956Z,41.10
2019-01-24T11:22:14.188Z,41.90
2019-01-24T11:24:18.355Z,41.10
2019-01-24T11:25:18.595Z,40.10
2019-01-24T11:27:22.790Z,40.30
2019-01-24T11:28:23.093Z,40.80
2019-01-24T11:30:27.281Z,38.90
2019-01-24T11:31:27.510Z,40.80
2019-01-24T11:33:31.671Z,42.70
2019-01-24T11:34:31.908Z,41.40
2019-01-24T11:36:24.972Z,46.90
2019-01-24T11:37:25.238Z,41.40
2019-01-24T11:39:29.422Z,43.10
2019-01-24T11:40:29.656Z,40.30
2019-01-24T11:42:33.830Z,40.80
2019-01-24T11:43:34.110Z,43.80
2019-01-24T11:45:38.311Z,41.10
2019-01-24T11:46:38.535Z,40.70
2019-01-24T11:48:42.766Z,40.30
2019-01-24T11:49:42.993Z,42.00
2019-01-24T11:51:47.147Z,44.70
2019-01-24T11:52:47.382Z,41.50
2019-01-24T11:54:51.551Z,40.40
2019-01-24T11:55:51.785Z,39.70
2019-01-24T11:57:55.954Z,41.30
2019-01-24T11:58:56.185Z,41.40
2019-01-24T12:01:00.341Z,39.10
2019-01-24T12:02:00.576Z,41.60
2019-01-24T12:04:04.731Z,40.00
2019-01-24T12:05:04.965Z,41.00
2019-01-24T12:07:09.118Z,41.70
2019-01-24T12:08:09.376Z,39.40
2019-01-24T12:10:13.608Z,40.40
2019-01-24T12:11:13.910Z,40.10
2019-01-24T12:13:18.036Z,40.90
2019-01-24T12:14:18.272Z,41.30
2019-01-24T12:16:11.340Z,41.70
2019-01-24T12:17:11.573Z,39.80
2019-01-24T12:19:15.737Z,41.50
2019-01-24T12:20:15.970Z,41.60
2019-01-24T12:22:20.108Z,42.70
2019-01-24T12:23:20.340Z,41.80
2019-01-24T12:25:24.513Z,40.40
2019-01-24T12:26:24.744Z,38.70
2019-01-24T12:28:28.916Z,39.50
2019-01-24T12:29:29.152Z,39.80
2019-01-24T12:31:33.288Z,39.90
2019-01-24T12:32:33.526Z,39.70
2019-01-24T12:34:37.687Z,39.70
2019-01-24T12:35:37.922Z,41.20
2019-01-24T12:37:43.078Z,40.70
2019-01-24T12:38:43.438Z,38.90
2019-01-24T12:40:47.707Z,42.30
2019-01-24T12:41:47.904Z,41.50
2019-01-24T12:43:53.302Z,41.60
2019-01-24T12:44:53.539Z,41.80
2019-01-24T12:46:57.681Z,41.20
2019-01-24T12:47:57.969Z,41.00
2019-01-24T12:50:02.135Z,40.30
2019-01-24T12:51:02.370Z,41.00
2019-01-24T12:53:06.553Z,40.30
2019-01-24T12:54:06.806Z,41.10
2019-01-24T12:56:00.021Z,41.70
2019-01-24T12:57:00.256Z,38.70
2019-01-24T12:59:04.421Z,39.80
2019-01-24T13:00:04.656Z,39.50
2019-01-24T13:02:08.829Z,39.60
2019-01-24T13:03:09.062Z,38.70
2019-01-24T13:05:13.303Z,40.20
2019-01-24T13:06:13.529Z,40.10
2019-01-24T13:08:17.674Z,41.60
2019-01-24T13:09:17.911Z,41.80
2019-01-24T13:11:22.070Z,40.80
2019-01-24T13:12:22.322Z,41.80
2019-01-24T13:14:26.558Z,39.30
2019-01-24T13:15:26.822Z,39.60
2019-01-24T13:17:30.963Z,40.90
2019-01-24T13:18:31.318Z,41.00
2019-01-24T13:20:35.580Z,38.20
2019-01-24T13:21:35.803Z,39.30
2019-01-24T13:23:39.946Z,38.50
2019-01-24T13:24:40.210Z,38.50
2019-01-24T13:26:33.313Z,39.50
2019-01-24T13:27:33.578Z,39.10
2019-01-24T13:29:37.805Z,41.20
2019-01-24T13:30:38.074Z,39.40
2019-01-24T13:32:42.242Z,39.80
2019-01-24T13:33:42.521Z,40.10
2019-01-24T13:35:46.757Z,38.40
2019-01-24T13:36:47.031Z,39.00
2019-01-24T13:38:51.174Z,37.90
2019-01-24T13:39:51.406Z,42.70
2019-01-24T13:41:55.568Z,38.00
2019-01-24T13:42:55.804Z,40.10
2019-01-24T13:44:59.984Z,39.40
2019-01-24T13:46:00.219Z,39.20
2019-01-24T13:48:04.364Z,39.20
2019-01-24T13:49:04.602Z,39.60
2019-01-24T13:51:08.776Z,38.80
2019-01-24T13:52:09.248Z,41.40
2019-01-24T13:54:13.153Z,41.40
2019-01-24T13:55:13.384Z,40.90
2019-01-24T13:57:17.553Z,39.10
2019-01-24T13:58:17.792Z,40.50
2019-01-24T14:00:21.957Z,41.20
2019-01-24T14:01:22.191Z,39.90
2019-01-24T14:03:26.333Z,39.40
2019-01-24T14:04:26.563Z,39.80
2019-01-24T14:06:19.666Z,37.70
2019-01-24T14:07:19.901Z,38.50
2019-01-24T14:09:24.050Z,39.00
2019-01-24T14:10:24.289Z,39.00
2019-01-24T14:12:28.459Z,39.10
2019-01-24T14:13:28.691Z,37.10
2019-01-24T14:15:32.859Z,38.30
2019-01-24T14:16:33.092Z,39.60
2019-01-24T14:18:37.236Z,37.90
2019-01-24T14:19:37.471Z,38.60
2019-01-24T14:21:41.647Z,40.70
2019-01-24T14:22:41.881Z,40.50
2019-01-24T14:24:46.028Z,40.40
2019-01-24T14:25:46.256Z,40.50
2019-01-24T14:27:51.436Z,40.10
2019-01-24T14:28:51.667Z,41.50
2019-01-24T14:30:55.842Z,37.40
2019-01-24T14:31:56.072Z,39.20
2019-01-24T14:34:00.222Z,39.70
2019-01-24T14:35:00.460Z,40.90
2019-01-24T14:37:04.620Z,41.20
2019-01-24T14:38:04.856Z,41.50
2019-01-24T14:40:09.002Z,41.10
2019-01-24T14:41:09.235Z,40.60
2019-01-24T14:43:13.399Z,40.80
2019-01-24T14:44:13.635Z,41.10
2019-01-24T14:46:06.728Z,39.90
2019-01-24T14:47:06.960Z,39.90
2019-01-24T14:49:11.101Z,42.30
2019-01-24T14:50:11.342Z,43.80
2019-01-24T14:52:15.504Z,42.10
2019-01-24T14:53:15.737Z,40.90
2019-01-24T14:55:19.878Z,40.70
2019-01-24T14:56:20.111Z,42.20
2019-01-24T14:58:24.276Z,44.50
2019-01-24T14:59:24.508Z,43.40
2019-01-24T15:01:28.670Z,43.30
2019-01-24T15:02:28.901Z,42.80
2019-01-24T15:04:33.050Z,39.80
2019-01-24T15:05:33.282Z,42.70
2019-01-24T15:07:37.449Z,55.60
2019-01-24T15:08:37.679Z,58.90
2019-01-24T15:10:41.822Z,56.50
2019-01-24T15:11:42.054Z,53.50
2019-01-24T15:13:46.225Z,52.90
2019-01-24T15:14:46.458Z,51.40
2019-01-24T15:16:39.549Z,51.90
2019-01-24T15:17:39.781Z,50.90
2019-01-24T15:19:43.923Z,53.00
2019-01-24T15:20:44.155Z,52.10
2019-01-24T15:22:48.320Z,52.90
2019-01-24T15:23:48.557Z,52.60
2019-01-24T15:25:52.705Z,46.30
2019-01-24T15:26:52.936Z,46.30
2019-01-24T15:28:57.118Z,46.40
2019-01-24T15:29:57.352Z,45.80
2019-01-24T15:32:01.583Z,47.30
2019-01-24T15:33:01.816Z,46.00
2019-01-24T15:35:05.973Z,45.70
2019-01-24T15:36:06.208Z,43.60
2019-01-24T15:38:10.376Z,45.80
2019-01-24T15:39:10.609Z,45.20
2019-01-24T15:41:14.765Z,45.80
2019-01-24T15:42:15.002Z,46.00
2019-01-24T15:44:19.177Z,46.00
2019-01-24T15:45:19.414Z,47.10
2019-01-24T15:47:23.643Z,46.40
2019-01-24T15:48:23.876Z,47.50
2019-01-24T15:50:28.018Z,45.70
2019-01-24T15:51:28.247Z,45.30
2019-01-24T15:53:32.405Z,44.90
2019-01-24T15:54:32.637Z,44.30
2019-01-24T15:56:25.704Z,44.70
2019-01-24T15:57:25.935Z,45.60
2019-01-24T15:59:30.091Z,47.00
2019-01-24T16:00:30.323Z,46.80
2019-01-24T16:02:34.529Z,45.10
2019-01-24T16:03:34.809Z,45.60
2019-01-24T16:05:38.956Z,47.90
2019-01-24T16:06:39.189Z,45.30
2019-01-24T16:08:43.350Z,47.10
2019-01-24T16:09:43.581Z,47.60
2019-01-24T16:11:47.721Z,46.50
2019-01-24T16:12:47.954Z,49.20
2019-01-24T16:14:52.114Z,50.70
2019-01-24T16:15:52.346Z,47.70
2019-01-24T16:17:56.508Z,50.50
2019-01-24T16:18:56.740Z,50.10
2019-01-24T16:21:00.873Z,50.30
2019-01-24T16:22:01.113Z,51.80
2019-01-24T16:24:05.268Z,58.90
2019-01-24T16:25:05.501Z,58.50
2019-01-24T16:27:09.650Z,68.50
2019-01-24T16:28:09.884Z,71.70
2019-01-24T16:30:14.045Z,54.40
2019-01-24T16:31:14.276Z,55.00
2019-01-24T16:33:18.436Z,55.60
2019-01-24T16:34:18.669Z,55.60
2019-01-24T16:36:11.761Z,52.30
2019-01-24T16:37:11.991Z,51.20
2019-01-24T16:39:16.161Z,60.50
2019-01-24T16:40:16.395Z,65.30
2019-01-24T16:42:20.545Z,58.70
2019-01-24T16:43:20.777Z,61.50
2019-01-24T16:45:25.982Z,59.20
2019-01-24T16:46:26.213Z,59.60
2019-01-24T16:48:30.371Z,56.90
2019-01-24T16:49:30.605Z,54.10
2019-01-24T16:51:34.748Z,55.20
2019-01-24T16:52:34.983Z,56.40
2019-01-24T16:54:39.133Z,60.00
2019-01-24T16:55:39.364Z,60.60
2019-01-24T16:57:43.503Z,62.60
2019-01-24T16:58:43.736Z,60.60
2019-01-24T17:00:47.899Z,57.80
2019-01-24T17:01:48.135Z,55.70
2019-01-24T17:03:52.291Z,53.00
2019-01-24T17:04:52.530Z,53.90
2019-01-24T17:06:56.666Z,59.40
2019-01-24T17:07:56.900Z,57.40
2019-01-24T17:10:01.061Z,55.50
2019-01-24T17:11:01.297Z,56.30
2019-01-24T17:13:05.433Z,56.10
2019-01-24T17:14:05.667Z,58.90
2019-01-24T17:15:58.754Z,57.00
2019-01-24T17:16:58.988Z,55.10
2019-01-24T17:19:03.161Z,57.70
2019-01-24T17:20:03.395Z,58.00
2019-01-24T17:22:07.536Z,52.80
2019-01-24T17:23:07.770Z,56.10
2019-01-24T17:25:11.927Z,55.30
2019-01-24T17:26:12.158Z,52.10
2019-01-24T17:28:16.302Z,50.30
2019-01-24T17:29:16.535Z,50.20
2019-01-24T17:31:20.698Z,50.80
2019-01-24T17:32:20.929Z,50.70
2019-01-24T17:34:25.088Z,49.40
2019-01-24T17:35:25.322Z,48.40
2019-01-24T17:37:29.472Z,46.00
2019-01-24T17:38:29.705Z,48.40
2019-01-24T17:40:34.038Z,49.40
2019-01-24T17:41:34.196Z,50.00
2019-01-24T17:43:38.342Z,49.20
2019-01-24T17:44:38.577Z,48.10
2019-01-24T17:46:31.668Z,47.00
2019-01-24T17:47:31.904Z,46.10
2019-01-24T17:49:36.069Z,48.00
2019-01-24T17:50:36.357Z,47.70
2019-01-24T17:52:40.496Z,47.00
2019-01-24T17:53:40.732Z,47.90
2019-01-24T17:55:44.936Z,49.20
2019-01-24T17:56:45.168Z,49.20
2019-01-24T17:58:49.323Z,48.30
2019-01-24T17:59:49.588Z,47.70
2019-01-24T18:01:53.747Z,47.60
2019-01-24T18:02:53.982Z,48.90
2019-01-24T18:04:58.240Z,52.20
2019-01-24T18:05:58.522Z,50.70
2019-01-24T18:08:02.671Z,54.60
2019-01-24T18:09:02.899Z,52.40
2019-01-24T18:11:07.060Z,49.90
2019-01-24T18:12:07.294Z,51.20
2019-01-24T18:14:11.431Z,47.30
2019-01-24T18:15:11.753Z,48.90
2019-01-24T18:17:15.921Z,50.10
2019-01-24T18:18:16.156Z,50.10
2019-01-24T18:20:21.328Z,48.90
2019-01-24T18:21:21.557Z,48.80
2019-01-24T18:23:25.745Z,48.70
2019-01-24T18:24:25.928Z,47.10
2019-01-24T18:26:19.009Z,47.90
2019-01-24T18:27:19.237Z,49.00
2019-01-24T18:29:23.386Z,45.10
2019-01-24T18:30:23.619Z,47.40
2019-01-24T18:32:27.778Z,48.20
2019-01-24T18:33:28.061Z,45.80
2019-01-24T18:35:32.334Z,45.40
2019-01-24T18:36:32.666Z,47.00
2019-01-24T18:38:38.544Z,50.40
2019-01-24T18:39:37.031Z,50.70
2019-01-24T18:41:41.205Z,51.60
2019-01-24T18:42:41.440Z,50.90
2019-01-24T18:44:45.590Z,51.00
2019-01-24T18:45:45.815Z,50.50
2019-01-24T18:47:50.039Z,50.90
2019-01-24T18:48:50.319Z,51.30
2019-01-24T18:50:54.485Z,50.70
2019-01-24T18:51:54.716Z,52.10
2019-01-24T18:53:59.914Z,52.40
2019-01-24T18:55:00.238Z,52.50
2019-01-24T18:57:04.446Z,51.00
2019-01-24T18:58:04.689Z,53.20
2019-01-24T19:00:08.853Z,52.80
2019-01-24T19:01:09.082Z,55.80
2019-01-24T19:03:13.239Z,55.40
2019-01-24T19:04:13.547Z,56.10
2019-01-24T19:06:06.701Z,50.40
2019-01-24T19:07:06.956Z,51.10
2019-01-24T19:09:11.133Z,53.20
2019-01-24T19:10:11.349Z,51.50
2019-01-24T19:12:15.510Z,51.40
2019-01-24T19:13:15.824Z,50.00
2019-01-24T19:15:19.967Z,50.20
2019-01-24T19:16:20.206Z,52.20
2019-01-24T19:18:24.375Z,51.80
2019-01-24T19:19:24.756Z,51.30
2019-01-24T19:21:28.852Z,49.40
2019-01-24T19:22:29.087Z,52.40
2019-01-24T19:24:34.144Z,52.50
2019-01-24T19:25:33.475Z,53.80
2019-01-24T19:27:37.642Z,52.30
2019-01-24T19:28:37.877Z,53.10
2019-01-24T19:30:42.015Z,52.40
2019-01-24T19:31:42.252Z,50.50
2019-01-24T19:33:46.426Z,52.20
2019-01-24T19:34:46.655Z,50.30
2019-01-24T19:36:39.751Z,53.70
2019-01-24T19:37:39.984Z,52.80
2019-01-24T19:39:44.162Z,50.50
2019-01-24T19:40:44.393Z,51.70
2019-01-24T19:42:48.559Z,50.40